sensor_id;sensor_type;location;lat;lon;timestamp;P1;durP1;ratioP1;P2;durP2;ratioP2
7142;SDS011;3613;48.902;9.204;2022-09-09T00:00:49;6.90;;;3.07;;
7142;SDS011;3613;48.902;9.204;2022-09-09T00:03:26;6.47;;;2.80;;
7142;SDS011;3613;48.902;9.204;2022-09-09T00:06:08;6.53;;;3.20;;
7142;SDS011;3613;48.902;9.204;2022-09-09T00:08:43;4.97;;;3.27;;
7142;SDS011;3613;48.902;9.204;2022-09-09T00:11:23;5.80;;;2.73;;
7142;SDS011;3613;48.902;9.204;2022-09-09T00:13:55;5.13;;;2.77;;
7142;SDS011;3613;48.902;9.204;2022-09-09T00:16:27;3.40;;;2.50;;
7142;SDS011;3613;48.902;9.204;2022-09-09T00:21:44;5.40;;;2.53;;
7142;SDS011;3613;48.902;9.204;2022-09-09T00:24:32;5.40;;;2.77;;
7142;SDS011;3613;48.902;9.204;2022-09-09T00:27:53;6.33;;;2.23;;
7142;SDS011;3613;48.902;9.204;2022-09-09T00:32:45;5.27;;;2.33;;
7142;SDS011;3613;48.902;9.204;2022-09-09T00:38:05;3.83;;;2.07;;
7142;SDS011;3613;48.902;9.204;2022-09-09T00:40:52;8.63;;;2.80;;
7142;SDS011;3613;48.902;9.204;2022-09-09T00:54:28;4.40;;;2.40;;
7142;SDS011;3613;48.902;9.204;2022-09-09T00:57:26;4.80;;;2.60;;
7142;SDS011;3613;48.902;9.204;2022-09-09T01:17:13;5.53;;;2.50;;
7142;SDS011;3613;48.902;9.204;2022-09-09T01:20:08;3.33;;;2.37;;
7142;SDS011;3613;48.902;9.204;2022-09-09T01:22:44;5.53;;;2.37;;
7142;SDS011;3613;48.902;9.204;2022-09-09T01:27:52;2.67;;;2.47;;
7142;SDS011;3613;48.902;9.204;2022-09-09T01:30:21;5.33;;;2.50;;
7142;SDS011;3613;48.902;9.204;2022-09-09T01:32:49;5.50;;;2.57;;
7142;SDS011;3613;48.902;9.204;2022-09-09T01:37:53;4.77;;;2.37;;
7142;SDS011;3613;48.902;9.204;2022-09-09T01:40:18;4.53;;;2.40;;
7142;SDS011;3613;48.902;9.204;2022-09-09T01:42:44;4.63;;;2.50;;
7142;SDS011;3613;48.902;9.204;2022-09-09T01:45:10;5.47;;;2.50;;
7142;SDS011;3613;48.902;9.204;2022-09-09T01:47:35;5.77;;;2.53;;
7142;SDS011;3613;48.902;9.204;2022-09-09T01:50:01;5.33;;;2.67;;
7142;SDS011;3613;48.902;9.204;2022-09-09T01:52:28;3.53;;;2.20;;
7142;SDS011;3613;48.902;9.204;2022-09-09T01:54:54;4.27;;;2.33;;
7142;SDS011;3613;48.902;9.204;2022-09-09T01:57:23;3.87;;;2.50;;
7142;SDS011;3613;48.902;9.204;2022-09-09T02:02:32;3.90;;;2.43;;
7142;SDS011;3613;48.902;9.204;2022-09-09T02:13:01;3.90;;;2.60;;
7142;SDS011;3613;48.902;9.204;2022-09-09T02:15:37;4.83;;;2.80;;
7142;SDS011;3613;48.902;9.204;2022-09-09T02:18:09;4.70;;;3.10;;
7142;SDS011;3613;48.902;9.204;2022-09-09T02:20:42;3.80;;;2.30;;
7142;SDS011;3613;48.902;9.204;2022-09-09T02:23:12;4.10;;;2.27;;
7142;SDS011;3613;48.902;9.204;2022-09-09T02:25:39;4.27;;;2.57;;
7142;SDS011;3613;48.902;9.204;2022-09-09T02:28:06;7.03;;;2.87;;
7142;SDS011;3613;48.902;9.204;2022-09-09T02:30:35;8.43;;;3.23;;
7142;SDS011;3613;48.902;9.204;2022-09-09T02:33:03;5.07;;;2.53;;
7142;SDS011;3613;48.902;9.204;2022-09-09T02:35:31;6.37;;;2.67;;
7142;SDS011;3613;48.902;9.204;2022-09-09T02:38:05;6.10;;;2.83;;
7142;SDS011;3613;48.902;9.204;2022-09-09T02:40:39;4.87;;;2.63;;
7142;SDS011;3613;48.902;9.204;2022-09-09T02:43:05;7.53;;;2.90;;
7142;SDS011;3613;48.902;9.204;2022-09-09T02:45:55;5.17;;;2.60;;
7142;SDS011;3613;48.902;9.204;2022-09-09T02:54:30;5.37;;;2.90;;
7142;SDS011;3613;48.902;9.204;2022-09-09T02:56:56;4.37;;;2.50;;
7142;SDS011;3613;48.902;9.204;2022-09-09T02:59:39;5.10;;;2.00;;
7142;SDS011;3613;48.902;9.204;2022-09-09T03:02:05;7.03;;;2.93;;
7142;SDS011;3613;48.902;9.204;2022-09-09T03:04:31;4.13;;;2.70;;
7142;SDS011;3613;48.902;9.204;2022-09-09T03:06:57;3.53;;;2.60;;
7142;SDS011;3613;48.902;9.204;2022-09-09T03:09:23;5.93;;;2.53;;
7142;SDS011;3613;48.902;9.204;2022-09-09T03:11:52;3.23;;;2.40;;
7142;SDS011;3613;48.902;9.204;2022-09-09T03:14:18;3.17;;;2.47;;
7142;SDS011;3613;48.902;9.204;2022-09-09T03:16:48;4.53;;;2.47;;
7142;SDS011;3613;48.902;9.204;2022-09-09T03:19:14;4.93;;;2.50;;
7142;SDS011;3613;48.902;9.204;2022-09-09T03:21:39;6.57;;;3.20;;
7142;SDS011;3613;48.902;9.204;2022-09-09T03:24:05;4.00;;;2.83;;
7142;SDS011;3613;48.902;9.204;2022-09-09T03:26:34;5.90;;;2.77;;
7142;SDS011;3613;48.902;9.204;2022-09-09T03:29:05;7.43;;;2.77;;
7142;SDS011;3613;48.902;9.204;2022-09-09T03:31:32;4.20;;;3.00;;
7142;SDS011;3613;48.902;9.204;2022-09-09T03:33:58;3.97;;;2.90;;
7142;SDS011;3613;48.902;9.204;2022-09-09T03:36:24;5.80;;;2.70;;
7142;SDS011;3613;48.902;9.204;2022-09-09T03:38:51;5.33;;;2.50;;
7142;SDS011;3613;48.902;9.204;2022-09-09T03:41:19;5.03;;;2.83;;
7142;SDS011;3613;48.902;9.204;2022-09-09T03:43:44;6.03;;;2.87;;
7142;SDS011;3613;48.902;9.204;2022-09-09T03:46:10;7.40;;;2.77;;
7142;SDS011;3613;48.902;9.204;2022-09-09T03:48:38;8.43;;;2.67;;
7142;SDS011;3613;48.902;9.204;2022-09-09T03:51:03;3.30;;;2.73;;
7142;SDS011;3613;48.902;9.204;2022-09-09T03:53:30;8.30;;;2.80;;
7142;SDS011;3613;48.902;9.204;2022-09-09T03:55:58;4.40;;;3.23;;
7142;SDS011;3613;48.902;9.204;2022-09-09T03:58:27;3.97;;;2.37;;
7142;SDS011;3613;48.902;9.204;2022-09-09T04:00:56;5.10;;;2.53;;
7142;SDS011;3613;48.902;9.204;2022-09-09T04:03:26;3.87;;;2.33;;
7142;SDS011;3613;48.902;9.204;2022-09-09T04:05:55;4.23;;;2.23;;
7142;SDS011;3613;48.902;9.204;2022-09-09T04:08:23;7.03;;;2.60;;
7142;SDS011;3613;48.902;9.204;2022-09-09T04:10:52;3.97;;;1.97;;
7142;SDS011;3613;48.902;9.204;2022-09-09T04:13:23;4.30;;;2.20;;
7142;SDS011;3613;48.902;9.204;2022-09-09T04:15:50;5.50;;;2.00;;
7142;SDS011;3613;48.902;9.204;2022-09-09T04:18:20;3.13;;;2.47;;
7142;SDS011;3613;48.902;9.204;2022-09-09T04:20:47;3.13;;;1.93;;
7142;SDS011;3613;48.902;9.204;2022-09-09T04:23:14;4.10;;;2.40;;
7142;SDS011;3613;48.902;9.204;2022-09-09T04:25:44;2.20;;;1.90;;
7142;SDS011;3613;48.902;9.204;2022-09-09T04:28:14;3.83;;;2.10;;
7142;SDS011;3613;48.902;9.204;2022-09-09T04:30:42;5.53;;;2.10;;
7142;SDS011;3613;48.902;9.204;2022-09-09T04:33:09;4.33;;;2.30;;
7142;SDS011;3613;48.902;9.204;2022-09-09T04:35:46;4.60;;;2.40;;
7142;SDS011;3613;48.902;9.204;2022-09-09T04:38:14;6.83;;;2.50;;
7142;SDS011;3613;48.902;9.204;2022-09-09T04:40:45;3.00;;;2.30;;
7142;SDS011;3613;48.902;9.204;2022-09-09T04:43:11;6.93;;;2.43;;
7142;SDS011;3613;48.902;9.204;2022-09-09T04:45:40;4.57;;;2.83;;
7142;SDS011;3613;48.902;9.204;2022-09-09T04:48:08;5.30;;;2.83;;
7142;SDS011;3613;48.902;9.204;2022-09-09T04:50:37;5.80;;;2.37;;
7142;SDS011;3613;48.902;9.204;2022-09-09T04:53:03;4.37;;;2.40;;
7142;SDS011;3613;48.902;9.204;2022-09-09T04:55:33;6.33;;;2.10;;
7142;SDS011;3613;48.902;9.204;2022-09-09T04:58:03;4.27;;;2.00;;
7142;SDS011;3613;48.902;9.204;2022-09-09T05:00:30;2.67;;;1.87;;
7142;SDS011;3613;48.902;9.204;2022-09-09T05:03:04;3.73;;;2.17;;
7142;SDS011;3613;48.902;9.204;2022-09-09T05:05:30;5.13;;;2.20;;
7142;SDS011;3613;48.902;9.204;2022-09-09T05:08:03;4.07;;;2.20;;
7142;SDS011;3613;48.902;9.204;2022-09-09T05:10:36;3.80;;;2.30;;
7142;SDS011;3613;48.902;9.204;2022-09-09T05:13:06;2.83;;;2.20;;
7142;SDS011;3613;48.902;9.204;2022-09-09T05:15:34;4.97;;;2.37;;
7142;SDS011;3613;48.902;9.204;2022-09-09T05:18:01;4.33;;;2.10;;
7142;SDS011;3613;48.902;9.204;2022-09-09T05:20:30;4.20;;;2.47;;
7142;SDS011;3613;48.902;9.204;2022-09-09T05:22:56;3.83;;;2.30;;
7142;SDS011;3613;48.902;9.204;2022-09-09T05:25:22;3.77;;;2.43;;
7142;SDS011;3613;48.902;9.204;2022-09-09T05:27:51;4.63;;;2.17;;
7142;SDS011;3613;48.902;9.204;2022-09-09T05:30:19;5.43;;;2.27;;
7142;SDS011;3613;48.902;9.204;2022-09-09T05:32:47;5.13;;;2.33;;
7142;SDS011;3613;48.902;9.204;2022-09-09T05:35:15;3.90;;;1.97;;
7142;SDS011;3613;48.902;9.204;2022-09-09T05:37:44;4.37;;;2.20;;
7142;SDS011;3613;48.902;9.204;2022-09-09T05:40:12;4.67;;;2.40;;
7142;SDS011;3613;48.902;9.204;2022-09-09T05:42:38;7.30;;;2.53;;
7142;SDS011;3613;48.902;9.204;2022-09-09T05:45:04;4.10;;;2.00;;
7142;SDS011;3613;48.902;9.204;2022-09-09T05:47:32;3.90;;;2.00;;
7142;SDS011;3613;48.902;9.204;2022-09-09T05:49:58;4.20;;;2.43;;
7142;SDS011;3613;48.902;9.204;2022-09-09T05:52:24;5.43;;;2.40;;
7142;SDS011;3613;48.902;9.204;2022-09-09T05:54:52;7.80;;;2.53;;
7142;SDS011;3613;48.902;9.204;2022-09-09T05:57:19;5.87;;;2.50;;
7142;SDS011;3613;48.902;9.204;2022-09-09T05:59:47;7.10;;;2.50;;
7142;SDS011;3613;48.902;9.204;2022-09-09T06:02:15;5.63;;;2.60;;
7142;SDS011;3613;48.902;9.204;2022-09-09T06:04:41;5.20;;;2.70;;
7142;SDS011;3613;48.902;9.204;2022-09-09T06:07:07;5.50;;;2.83;;
7142;SDS011;3613;48.902;9.204;2022-09-09T06:09:32;7.37;;;2.40;;
7142;SDS011;3613;48.902;9.204;2022-09-09T06:12:00;4.90;;;2.50;;
7142;SDS011;3613;48.902;9.204;2022-09-09T06:14:29;5.50;;;2.30;;
7142;SDS011;3613;48.902;9.204;2022-09-09T06:16:55;7.17;;;2.90;;
7142;SDS011;3613;48.902;9.204;2022-09-09T06:19:21;4.73;;;2.30;;
7142;SDS011;3613;48.902;9.204;2022-09-09T06:21:49;7.17;;;2.33;;
7142;SDS011;3613;48.902;9.204;2022-09-09T06:24:15;3.90;;;2.00;;
7142;SDS011;3613;48.902;9.204;2022-09-09T06:26:44;3.77;;;2.13;;
7142;SDS011;3613;48.902;9.204;2022-09-09T06:29:10;3.97;;;2.30;;
7142;SDS011;3613;48.902;9.204;2022-09-09T06:31:38;3.77;;;2.00;;
7142;SDS011;3613;48.902;9.204;2022-09-09T06:34:04;6.23;;;2.23;;
7142;SDS011;3613;48.902;9.204;2022-09-09T06:36:32;6.40;;;1.70;;
7142;SDS011;3613;48.902;9.204;2022-09-09T06:38:59;6.73;;;2.00;;
7142;SDS011;3613;48.902;9.204;2022-09-09T06:41:31;3.87;;;1.80;;
7142;SDS011;3613;48.902;9.204;2022-09-09T06:43:57;2.57;;;1.97;;
7142;SDS011;3613;48.902;9.204;2022-09-09T06:46:32;3.73;;;1.87;;
7142;SDS011;3613;48.902;9.204;2022-09-09T06:48:58;10.23;;;4.90;;
7142;SDS011;3613;48.902;9.204;2022-09-09T06:51:26;5.97;;;2.30;;
7142;SDS011;3613;48.902;9.204;2022-09-09T06:53:54;4.57;;;2.13;;
7142;SDS011;3613;48.902;9.204;2022-09-09T06:56:31;3.30;;;1.63;;
7142;SDS011;3613;48.902;9.204;2022-09-09T06:59:00;2.77;;;1.70;;
7142;SDS011;3613;48.902;9.204;2022-09-09T07:01:29;3.07;;;2.07;;
7142;SDS011;3613;48.902;9.204;2022-09-09T07:04:02;6.37;;;3.73;;
7142;SDS011;3613;48.902;9.204;2022-09-09T07:06:33;7.60;;;2.97;;
7142;SDS011;3613;48.902;9.204;2022-09-09T07:09:01;5.93;;;3.40;;
7142;SDS011;3613;48.902;9.204;2022-09-09T07:11:33;4.90;;;2.00;;
7142;SDS011;3613;48.902;9.204;2022-09-09T07:14:17;4.17;;;1.80;;
7142;SDS011;3613;48.902;9.204;2022-09-09T07:16:44;4.43;;;1.83;;
7142;SDS011;3613;48.902;9.204;2022-09-09T07:19:10;3.30;;;2.00;;
7142;SDS011;3613;48.902;9.204;2022-09-09T07:21:37;3.17;;;1.90;;
7142;SDS011;3613;48.902;9.204;2022-09-09T07:24:03;3.00;;;1.90;;
7142;SDS011;3613;48.902;9.204;2022-09-09T07:26:32;6.60;;;2.00;;
7142;SDS011;3613;48.902;9.204;2022-09-09T07:28:58;5.57;;;2.10;;
7142;SDS011;3613;48.902;9.204;2022-09-09T07:31:28;4.10;;;2.20;;
7142;SDS011;3613;48.902;9.204;2022-09-09T07:33:59;3.70;;;2.00;;
7142;SDS011;3613;48.902;9.204;2022-09-09T07:36:29;3.57;;;1.57;;
7142;SDS011;3613;48.902;9.204;2022-09-09T07:38:59;2.43;;;1.27;;
7142;SDS011;3613;48.902;9.204;2022-09-09T07:41:31;2.47;;;1.40;;
7142;SDS011;3613;48.902;9.204;2022-09-09T07:46:57;2.47;;;1.30;;
7142;SDS011;3613;48.902;9.204;2022-09-09T07:49:23;6.13;;;2.00;;
7142;SDS011;3613;48.902;9.204;2022-09-09T07:51:49;3.53;;;2.03;;
7142;SDS011;3613;48.902;9.204;2022-09-09T07:54:15;2.93;;;1.63;;
7142;SDS011;3613;48.902;9.204;2022-09-09T07:56:45;4.13;;;1.70;;
7142;SDS011;3613;48.902;9.204;2022-09-09T07:59:12;5.27;;;1.57;;
7142;SDS011;3613;48.902;9.204;2022-09-09T08:01:44;3.60;;;1.87;;
7142;SDS011;3613;48.902;9.204;2022-09-09T08:04:18;4.27;;;1.50;;
7142;SDS011;3613;48.902;9.204;2022-09-09T08:06:45;3.60;;;1.50;;
7142;SDS011;3613;48.902;9.204;2022-09-09T08:09:15;3.93;;;1.67;;
7142;SDS011;3613;48.902;9.204;2022-09-09T08:11:44;3.47;;;1.60;;
7142;SDS011;3613;48.902;9.204;2022-09-09T08:14:10;4.33;;;1.43;;
7142;SDS011;3613;48.902;9.204;2022-09-09T08:16:38;3.93;;;1.40;;
7142;SDS011;3613;48.902;9.204;2022-09-09T08:19:09;2.80;;;1.17;;
7142;SDS011;3613;48.902;9.204;2022-09-09T08:21:38;3.27;;;1.47;;
7142;SDS011;3613;48.902;9.204;2022-09-09T08:24:08;4.00;;;1.60;;
7142;SDS011;3613;48.902;9.204;2022-09-09T08:26:39;3.97;;;1.30;;
7142;SDS011;3613;48.902;9.204;2022-09-09T08:29:07;4.13;;;1.43;;
7142;SDS011;3613;48.902;9.204;2022-09-09T08:31:39;4.00;;;1.37;;
7142;SDS011;3613;48.902;9.204;2022-09-09T08:34:16;3.10;;;1.70;;
7142;SDS011;3613;48.902;9.204;2022-09-09T08:36:45;3.47;;;1.97;;
7142;SDS011;3613;48.902;9.204;2022-09-09T08:39:12;4.37;;;1.50;;
7142;SDS011;3613;48.902;9.204;2022-09-09T08:52:30;2.30;;;1.30;;
7142;SDS011;3613;48.902;9.204;2022-09-09T08:57:42;2.20;;;1.20;;
7142;SDS011;3613;48.902;9.204;2022-09-09T09:00:10;3.67;;;1.73;;
7142;SDS011;3613;48.902;9.204;2022-09-09T09:02:54;3.13;;;1.33;;
7142;SDS011;3613;48.902;9.204;2022-09-09T09:08:40;3.37;;;1.50;;
7142;SDS011;3613;48.902;9.204;2022-09-09T09:11:11;2.93;;;1.23;;
7142;SDS011;3613;48.902;9.204;2022-09-09T09:13:43;3.13;;;1.30;;
7142;SDS011;3613;48.902;9.204;2022-09-09T09:19:32;1.90;;;1.17;;
7142;SDS011;3613;48.902;9.204;2022-09-09T09:24:56;1.37;;;0.90;;
7142;SDS011;3613;48.902;9.204;2022-09-09T09:28:02;1.43;;;1.20;;
7142;SDS011;3613;48.902;9.204;2022-09-09T09:30:49;2.53;;;1.17;;
7142;SDS011;3613;48.902;9.204;2022-09-09T09:33:38;2.23;;;1.20;;
7142;SDS011;3613;48.902;9.204;2022-09-09T09:36:13;3.60;;;1.30;;
7142;SDS011;3613;48.902;9.204;2022-09-09T09:41:46;1.00;;;0.93;;
7142;SDS011;3613;48.902;9.204;2022-09-09T09:44:30;3.13;;;1.20;;
7142;SDS011;3613;48.902;9.204;2022-09-09T09:52:21;5.63;;;1.17;;
7142;SDS011;3613;48.902;9.204;2022-09-09T09:54:51;7.17;;;4.17;;
7142;SDS011;3613;48.902;9.204;2022-09-09T09:57:22;2.93;;;1.43;;
7142;SDS011;3613;48.902;9.204;2022-09-09T10:02:40;2.17;;;1.20;;
7142;SDS011;3613;48.902;9.204;2022-09-09T10:16:25;1.97;;;1.00;;
7142;SDS011;3613;48.902;9.204;2022-09-09T10:19:03;4.63;;;1.40;;
7142;SDS011;3613;48.902;9.204;2022-09-09T10:21:50;2.90;;;1.20;;
7142;SDS011;3613;48.902;9.204;2022-09-09T10:30:01;3.87;;;1.30;;
7142;SDS011;3613;48.902;9.204;2022-09-09T10:38:48;2.47;;;1.20;;
7142;SDS011;3613;48.902;9.204;2022-09-09T10:41:49;2.80;;;1.60;;
7142;SDS011;3613;48.902;9.204;2022-09-09T10:55:43;2.90;;;1.50;;
7142;SDS011;3613;48.902;9.204;2022-09-09T10:58:26;4.63;;;1.10;;
7142;SDS011;3613;48.902;9.204;2022-09-09T11:01:00;3.60;;;1.60;;
7142;SDS011;3613;48.902;9.204;2022-09-09T11:03:34;4.37;;;1.60;;
7142;SDS011;3613;48.902;9.204;2022-09-09T11:06:05;2.80;;;1.20;;
7142;SDS011;3613;48.902;9.204;2022-09-09T11:08:36;2.60;;;1.30;;
7142;SDS011;3613;48.902;9.204;2022-09-09T11:18:55;2.97;;;1.20;;
7142;SDS011;3613;48.902;9.204;2022-09-09T11:21:36;4.30;;;1.13;;
7142;SDS011;3613;48.902;9.204;2022-09-09T11:24:11;3.73;;;1.30;;
7142;SDS011;3613;48.902;9.204;2022-09-09T11:26:45;2.83;;;1.57;;
7142;SDS011;3613;48.902;9.204;2022-09-09T11:38:15;5.97;;;2.03;;
7142;SDS011;3613;48.902;9.204;2022-09-09T11:41:01;3.67;;;1.90;;
7142;SDS011;3613;48.902;9.204;2022-09-09T11:43:33;2.63;;;1.30;;
7142;SDS011;3613;48.902;9.204;2022-09-09T11:46:09;2.37;;;1.43;;
7142;SDS011;3613;48.902;9.204;2022-09-09T11:51:11;2.60;;;1.10;;
7142;SDS011;3613;48.902;9.204;2022-09-09T11:53:51;3.13;;;1.10;;
7142;SDS011;3613;48.902;9.204;2022-09-09T11:56:45;3.60;;;1.20;;
7142;SDS011;3613;48.902;9.204;2022-09-09T11:59:20;1.77;;;1.10;;
7142;SDS011;3613;48.902;9.204;2022-09-09T12:01:55;2.87;;;1.03;;
7142;SDS011;3613;48.902;9.204;2022-09-09T12:12:35;1.83;;;1.13;;
7142;SDS011;3613;48.902;9.204;2022-09-09T12:17:43;1.50;;;1.10;;
7142;SDS011;3613;48.902;9.204;2022-09-09T12:23:19;1.00;;;0.60;;
7142;SDS011;3613;48.902;9.204;2022-09-09T12:31:16;2.40;;;0.87;;
7142;SDS011;3613;48.902;9.204;2022-09-09T12:33:53;0.83;;;0.70;;
7142;SDS011;3613;48.902;9.204;2022-09-09T12:36:22;3.83;;;1.00;;
7142;SDS011;3613;48.902;9.204;2022-09-09T12:38:56;1.50;;;0.80;;
7142;SDS011;3613;48.902;9.204;2022-09-09T12:41:35;1.57;;;0.87;;
7142;SDS011;3613;48.902;9.204;2022-09-09T12:44:05;2.80;;;0.90;;
7142;SDS011;3613;48.902;9.204;2022-09-09T12:46:39;1.87;;;0.70;;
7142;SDS011;3613;48.902;9.204;2022-09-09T12:51:59;2.90;;;0.90;;
7142;SDS011;3613;48.902;9.204;2022-09-09T12:54:30;1.30;;;0.80;;
7142;SDS011;3613;48.902;9.204;2022-09-09T12:56:58;1.53;;;0.80;;
7142;SDS011;3613;48.902;9.204;2022-09-09T12:59:38;1.33;;;0.90;;
7142;SDS011;3613;48.902;9.204;2022-09-09T13:02:44;1.30;;;0.63;;
7142;SDS011;3613;48.902;9.204;2022-09-09T13:05:15;2.23;;;0.80;;
7142;SDS011;3613;48.902;9.204;2022-09-09T13:08:04;2.93;;;0.97;;
7142;SDS011;3613;48.902;9.204;2022-09-09T13:10:33;2.70;;;0.97;;
7142;SDS011;3613;48.902;9.204;2022-09-09T13:13:12;2.10;;;1.33;;
7142;SDS011;3613;48.902;9.204;2022-09-09T13:15:52;3.10;;;1.00;;
7142;SDS011;3613;48.902;9.204;2022-09-09T13:18:21;1.53;;;0.80;;
7142;SDS011;3613;48.902;9.204;2022-09-09T13:20:49;1.30;;;0.60;;
7142;SDS011;3613;48.902;9.204;2022-09-09T13:23:18;1.30;;;0.70;;
7142;SDS011;3613;48.902;9.204;2022-09-09T13:25:56;1.97;;;1.10;;
7142;SDS011;3613;48.902;9.204;2022-09-09T13:28:24;3.20;;;1.73;;
7142;SDS011;3613;48.902;9.204;2022-09-09T13:31:18;2.07;;;1.13;;
7142;SDS011;3613;48.902;9.204;2022-09-09T13:33:48;2.37;;;0.80;;
7142;SDS011;3613;48.902;9.204;2022-09-09T13:36:14;1.75;;;0.82;;
7142;SDS011;3613;48.902;9.204;2022-09-09T13:38:40;1.40;;;0.75;;
7142;SDS011;3613;48.902;9.204;2022-09-09T13:41:22;0.90;;;0.60;;
7142;SDS011;3613;48.902;9.204;2022-09-09T13:43:50;3.15;;;1.10;;
7142;SDS011;3613;48.902;9.204;2022-09-09T13:49:18;2.33;;;1.13;;
7142;SDS011;3613;48.902;9.204;2022-09-09T13:51:49;1.80;;;0.87;;
7142;SDS011;3613;48.902;9.204;2022-09-09T13:54:19;2.50;;;1.03;;
7142;SDS011;3613;48.902;9.204;2022-09-09T13:56:46;3.77;;;1.77;;
7142;SDS011;3613;48.902;9.204;2022-09-09T13:59:15;1.33;;;0.97;;
7142;SDS011;3613;48.902;9.204;2022-09-09T14:01:46;2.27;;;0.90;;
7142;SDS011;3613;48.902;9.204;2022-09-09T14:04:16;3.10;;;1.23;;
7142;SDS011;3613;48.902;9.204;2022-09-09T14:06:42;3.57;;;1.00;;
7142;SDS011;3613;48.902;9.204;2022-09-09T14:09:11;3.77;;;1.00;;
7142;SDS011;3613;48.902;9.204;2022-09-09T14:11:38;4.10;;;1.13;;
7142;SDS011;3613;48.902;9.204;2022-09-09T14:14:06;1.43;;;0.90;;
7142;SDS011;3613;48.902;9.204;2022-09-09T14:16:34;1.73;;;1.00;;
7142;SDS011;3613;48.902;9.204;2022-09-09T14:19:00;1.87;;;0.90;;
7142;SDS011;3613;48.902;9.204;2022-09-09T14:21:26;2.63;;;1.20;;
7142;SDS011;3613;48.902;9.204;2022-09-09T14:23:52;2.33;;;0.80;;
7142;SDS011;3613;48.902;9.204;2022-09-09T14:26:23;3.40;;;1.30;;
7142;SDS011;3613;48.902;9.204;2022-09-09T14:28:49;3.27;;;1.23;;
7142;SDS011;3613;48.902;9.204;2022-09-09T14:31:17;2.70;;;1.20;;
7142;SDS011;3613;48.902;9.204;2022-09-09T14:33:46;2.20;;;1.03;;
7142;SDS011;3613;48.902;9.204;2022-09-09T14:36:12;2.23;;;1.10;;
7142;SDS011;3613;48.902;9.204;2022-09-09T14:38:37;2.00;;;1.00;;
7142;SDS011;3613;48.902;9.204;2022-09-09T14:41:09;3.33;;;1.20;;
7142;SDS011;3613;48.902;9.204;2022-09-09T14:43:39;2.77;;;1.10;;
7142;SDS011;3613;48.902;9.204;2022-09-09T14:46:12;2.40;;;1.80;;
7142;SDS011;3613;48.902;9.204;2022-09-09T14:48:39;2.60;;;1.17;;
7142;SDS011;3613;48.902;9.204;2022-09-09T14:51:10;2.37;;;1.10;;
7142;SDS011;3613;48.902;9.204;2022-09-09T14:53:40;2.67;;;1.00;;
7142;SDS011;3613;48.902;9.204;2022-09-09T14:56:16;3.57;;;1.20;;
7142;SDS011;3613;48.902;9.204;2022-09-09T14:58:46;2.73;;;1.30;;
7142;SDS011;3613;48.902;9.204;2022-09-09T15:01:13;2.73;;;1.10;;
7142;SDS011;3613;48.902;9.204;2022-09-09T15:03:48;2.10;;;1.23;;
7142;SDS011;3613;48.902;9.204;2022-09-09T15:06:20;2.10;;;1.10;;
7142;SDS011;3613;48.902;9.204;2022-09-09T15:08:47;4.00;;;1.30;;
7142;SDS011;3613;48.902;9.204;2022-09-09T15:11:15;2.20;;;1.10;;
7142;SDS011;3613;48.902;9.204;2022-09-09T15:13:43;3.00;;;1.27;;
7142;SDS011;3613;48.902;9.204;2022-09-09T15:18:42;1.53;;;0.80;;
7142;SDS011;3613;48.902;9.204;2022-09-09T15:21:10;2.97;;;1.67;;
7142;SDS011;3613;48.902;9.204;2022-09-09T15:23:46;1.83;;;1.03;;
7142;SDS011;3613;48.902;9.204;2022-09-09T15:26:16;2.00;;;1.10;;
7142;SDS011;3613;48.902;9.204;2022-09-09T15:28:45;1.87;;;1.00;;
7142;SDS011;3613;48.902;9.204;2022-09-09T15:33:47;2.00;;;1.10;;
7142;SDS011;3613;48.902;9.204;2022-09-09T15:36:26;2.30;;;1.33;;
7142;SDS011;3613;48.902;9.204;2022-09-09T15:39:08;1.10;;;0.70;;
7142;SDS011;3613;48.902;9.204;2022-09-09T15:41:37;3.20;;;1.00;;
7142;SDS011;3613;48.902;9.204;2022-09-09T15:44:04;1.73;;;0.90;;
7142;SDS011;3613;48.902;9.204;2022-09-09T15:46:31;2.10;;;1.03;;
7142;SDS011;3613;48.902;9.204;2022-09-09T15:49:03;3.97;;;1.03;;
7142;SDS011;3613;48.902;9.204;2022-09-09T15:51:32;2.40;;;1.00;;
7142;SDS011;3613;48.902;9.204;2022-09-09T15:53:58;2.00;;;0.73;;
7142;SDS011;3613;48.902;9.204;2022-09-09T15:56:27;2.03;;;1.53;;
7142;SDS011;3613;48.902;9.204;2022-09-09T15:58:57;1.60;;;1.10;;
7142;SDS011;3613;48.902;9.204;2022-09-09T16:01:24;2.30;;;1.13;;
7142;SDS011;3613;48.902;9.204;2022-09-09T16:03:51;1.40;;;1.00;;
7142;SDS011;3613;48.902;9.204;2022-09-09T16:06:18;3.40;;;1.00;;
7142;SDS011;3613;48.902;9.204;2022-09-09T16:08:49;1.70;;;0.73;;
7142;SDS011;3613;48.902;9.204;2022-09-09T16:11:17;1.63;;;0.80;;
7142;SDS011;3613;48.902;9.204;2022-09-09T16:13:54;1.43;;;0.87;;
7142;SDS011;3613;48.902;9.204;2022-09-09T16:16:24;1.50;;;0.97;;
7142;SDS011;3613;48.902;9.204;2022-09-09T16:18:53;3.57;;;1.00;;
7142;SDS011;3613;48.902;9.204;2022-09-09T16:21:30;2.40;;;1.13;;
7142;SDS011;3613;48.902;9.204;2022-09-09T16:23:58;2.03;;;1.00;;
7142;SDS011;3613;48.902;9.204;2022-09-09T16:26:28;4.30;;;1.60;;
7142;SDS011;3613;48.902;9.204;2022-09-09T16:28:55;2.87;;;1.17;;
7142;SDS011;3613;48.902;9.204;2022-09-09T16:31:23;3.63;;;1.00;;
7142;SDS011;3613;48.902;9.204;2022-09-09T16:33:50;1.43;;;0.60;;
7142;SDS011;3613;48.902;9.204;2022-09-09T16:36:17;1.80;;;0.60;;
7142;SDS011;3613;48.902;9.204;2022-09-09T16:38:55;3.00;;;1.10;;
7142;SDS011;3613;48.902;9.204;2022-09-09T16:41:26;2.90;;;1.00;;
7142;SDS011;3613;48.902;9.204;2022-09-09T16:43:53;2.60;;;0.97;;
7142;SDS011;3613;48.902;9.204;2022-09-09T16:46:20;2.10;;;0.90;;
7142;SDS011;3613;48.902;9.204;2022-09-09T16:48:49;1.27;;;0.80;;
7142;SDS011;3613;48.902;9.204;2022-09-09T16:53:48;2.80;;;1.10;;
7142;SDS011;3613;48.902;9.204;2022-09-09T16:56:19;1.80;;;0.90;;
7142;SDS011;3613;48.902;9.204;2022-09-09T16:58:50;2.17;;;1.00;;
7142;SDS011;3613;48.902;9.204;2022-09-09T17:01:18;3.03;;;1.67;;
7142;SDS011;3613;48.902;9.204;2022-09-09T17:03:47;2.87;;;1.13;;
7142;SDS011;3613;48.902;9.204;2022-09-09T17:06:16;2.33;;;1.00;;
7142;SDS011;3613;48.902;9.204;2022-09-09T17:08:42;1.27;;;0.77;;
7142;SDS011;3613;48.902;9.204;2022-09-09T17:11:12;1.60;;;1.27;;
7142;SDS011;3613;48.902;9.204;2022-09-09T17:13:40;2.13;;;1.37;;
7142;SDS011;3613;48.902;9.204;2022-09-09T17:16:08;1.10;;;0.80;;
7142;SDS011;3613;48.902;9.204;2022-09-09T17:18:35;1.23;;;0.93;;
7142;SDS011;3613;48.902;9.204;2022-09-09T17:21:13;2.43;;;1.20;;
7142;SDS011;3613;48.902;9.204;2022-09-09T17:23:40;2.63;;;1.00;;
7142;SDS011;3613;48.902;9.204;2022-09-09T17:26:07;2.27;;;1.30;;
7142;SDS011;3613;48.902;9.204;2022-09-09T17:28:37;2.30;;;1.30;;
7142;SDS011;3613;48.902;9.204;2022-09-09T17:31:04;2.60;;;1.00;;
7142;SDS011;3613;48.902;9.204;2022-09-09T17:33:37;3.73;;;1.13;;
7142;SDS011;3613;48.902;9.204;2022-09-09T17:36:11;2.03;;;1.17;;
7142;SDS011;3613;48.902;9.204;2022-09-09T17:38:39;1.30;;;1.03;;
7142;SDS011;3613;48.902;9.204;2022-09-09T17:41:07;1.93;;;1.20;;
7142;SDS011;3613;48.902;9.204;2022-09-09T17:43:33;5.03;;;1.47;;
7142;SDS011;3613;48.902;9.204;2022-09-09T17:48:55;3.20;;;1.60;;
7142;SDS011;3613;48.902;9.204;2022-09-09T17:51:23;1.43;;;1.20;;
7142;SDS011;3613;48.902;9.204;2022-09-09T17:53:53;2.60;;;1.27;;
7142;SDS011;3613;48.902;9.204;2022-09-09T17:56:20;2.93;;;1.50;;
7142;SDS011;3613;48.902;9.204;2022-09-09T17:58:47;2.50;;;1.20;;
7142;SDS011;3613;48.902;9.204;2022-09-09T18:01:18;1.80;;;1.30;;
7142;SDS011;3613;48.902;9.204;2022-09-09T18:03:46;3.50;;;1.40;;
7142;SDS011;3613;48.902;9.204;2022-09-09T18:06:20;3.77;;;1.50;;
7142;SDS011;3613;48.902;9.204;2022-09-09T18:08:51;3.43;;;1.87;;
7142;SDS011;3613;48.902;9.204;2022-09-09T18:11:19;2.77;;;1.50;;
7142;SDS011;3613;48.902;9.204;2022-09-09T18:13:55;5.07;;;1.63;;
7142;SDS011;3613;48.902;9.204;2022-09-09T18:16:24;3.97;;;2.80;;
7142;SDS011;3613;48.902;9.204;2022-09-09T18:18:51;3.47;;;2.00;;
7142;SDS011;3613;48.902;9.204;2022-09-09T18:21:18;2.80;;;1.90;;
7142;SDS011;3613;48.902;9.204;2022-09-09T18:23:45;1.90;;;1.70;;
7142;SDS011;3613;48.902;9.204;2022-09-09T18:26:17;3.40;;;1.70;;
7142;SDS011;3613;48.902;9.204;2022-09-09T18:28:48;2.50;;;1.50;;
7142;SDS011;3613;48.902;9.204;2022-09-09T18:31:19;2.33;;;1.43;;
7142;SDS011;3613;48.902;9.204;2022-09-09T18:33:47;1.93;;;1.30;;
7142;SDS011;3613;48.902;9.204;2022-09-09T18:36:18;1.87;;;1.30;;
7142;SDS011;3613;48.902;9.204;2022-09-09T18:38:45;4.17;;;1.60;;
7142;SDS011;3613;48.902;9.204;2022-09-09T18:41:21;1.70;;;1.53;;